createdAt,value
2023-04-15T00:01:02.648Z,10.10
2023-04-15T00:03:31.320Z,9.18
2023-04-15T00:05:59.984Z,12.48
2023-04-15T00:08:28.892Z,8.60
2023-04-15T00:11:02.700Z,11.13
2023-04-15T00:13:31.421Z,10.75
2023-04-15T00:15:59.869Z,9.10
2023-04-15T00:18:29.549Z,9.98
2023-04-15T00:20:57.972Z,10.15
2023-04-15T00:23:26.725Z,10.27
2023-04-15T00:25:55.202Z,8.80
2023-04-15T00:28:25.223Z,9.93
2023-04-15T00:30:53.678Z,10.10
2023-04-15T00:33:22.214Z,7.35
2023-04-15T00:35:50.934Z,10.13
2023-04-15T00:38:19.646Z,9.85
2023-04-15T00:40:48.198Z,9.20
2023-04-15T00:43:16.706Z,12.90
2023-04-15T00:45:47.216Z,12.02
2023-04-15T00:48:16.452Z,10.18
2023-04-15T00:50:44.871Z,9.32
2023-04-15T00:53:13.353Z,11.23
2023-04-15T00:55:41.992Z,12.18
2023-04-15T00:58:10.451Z,11.32
2023-04-15T01:00:39.220Z,9.52
2023-04-15T01:03:09.228Z,7.97
2023-04-15T01:05:38.605Z,8.88
2023-04-15T01:08:07.670Z,10.75
2023-04-15T01:10:36.090Z,10.45
2023-04-15T01:13:05.073Z,9.70
2023-04-15T01:15:33.511Z,13.70
2023-04-15T01:18:02.018Z,13.70
2023-04-15T01:20:32.378Z,7.95
2023-04-15T01:23:01.069Z,10.43
2023-04-15T01:25:33.341Z,9.55
2023-04-15T01:28:02.182Z,12.60
2023-04-15T01:30:30.726Z,10.10
2023-04-15T01:32:59.190Z,13.68
2023-04-15T01:35:27.849Z,10.10
2023-04-15T01:37:56.545Z,11.52
2023-04-15T01:40:25.015Z,10.27
2023-04-15T01:42:54.872Z,15.25
2023-04-15T01:45:23.316Z,16.90
2023-04-15T01:47:51.863Z,12.05
2023-04-15T01:50:20.435Z,11.30
2023-04-15T01:52:48.899Z,12.55
2023-04-15T01:55:17.330Z,12.93
2023-04-15T01:57:46.552Z,13.02
2023-04-15T02:00:17.556Z,10.27
2023-04-15T02:02:46.107Z,12.57
2023-04-15T02:05:14.610Z,10.73
2023-04-15T02:07:43.476Z,14.50
2023-04-15T02:10:13.464Z,13.82
2023-04-15T02:12:42.200Z,10.65
2023-04-15T02:15:11.256Z,10.95
2023-04-15T02:17:41.166Z,13.70
2023-04-15T02:20:10.606Z,12.07
2023-04-15T02:22:39.074Z,11.57
2023-04-15T02:25:08.290Z,12.52
2023-04-15T02:27:37.712Z,14.32
2023-04-15T02:30:07.302Z,15.90
2023-04-15T02:32:35.893Z,13.00
2023-04-15T02:35:06.838Z,11.27
2023-04-15T02:37:37.108Z,11.15
2023-04-15T02:40:05.732Z,14.85
2023-04-15T02:42:34.147Z,13.10
2023-04-15T02:45:02.630Z,13.63
2023-04-15T02:47:31.331Z,13.32
2023-04-15T02:50:00.966Z,14.45
2023-04-15T02:52:31.209Z,11.68
2023-04-15T02:55:00.855Z,14.57
2023-04-15T02:57:29.775Z,11.52
2023-04-15T02:59:58.203Z,15.18
2023-04-15T03:02:26.876Z,13.13
2023-04-15T03:04:56.568Z,14.05
2023-04-15T03:07:25.042Z,13.82
2023-04-15T03:09:55.313Z,14.68
2023-04-15T03:12:23.749Z,14.63
2023-04-15T03:14:52.321Z,14.98
2023-04-15T03:17:20.836Z,17.92
2023-04-15T03:19:49.303Z,14.43
2023-04-15T03:22:17.752Z,13.80
2023-04-15T03:24:46.183Z,12.77
2023-04-15T03:27:16.000Z,15.60
2023-04-15T03:29:44.724Z,13.73
2023-04-15T03:32:15.232Z,16.83
2023-04-15T03:34:44.000Z,14.82
2023-04-15T03:37:12.451Z,13.18
2023-04-15T03:39:40.856Z,15.88
2023-04-15T03:42:09.322Z,12.32
2023-04-15T03:44:39.103Z,12.38
2023-04-15T03:47:07.647Z,15.32
2023-04-15T03:49:36.083Z,14.30
2023-04-15T03:52:04.556Z,15.52
2023-04-15T03:54:32.992Z,15.85
2023-04-15T03:57:01.426Z,18.17
2023-04-15T03:59:29.920Z,13.90
2023-04-15T04:01:59.827Z,12.63
2023-04-15T04:04:28.354Z,15.48
2023-04-15T04:06:56.900Z,15.93
2023-04-15T04:09:25.840Z,15.15
2023-04-15T04:11:54.291Z,14.85
2023-04-15T04:14:29.212Z,14.68
2023-04-15T04:16:57.828Z,13.73
2023-04-15T04:19:27.625Z,15.63
2023-04-15T04:21:56.241Z,13.75
2023-04-15T04:24:24.674Z,14.60
2023-04-15T04:26:53.148Z,16.35
2023-04-15T04:29:21.837Z,21.05
2023-04-15T04:31:50.509Z,14.23
2023-04-15T04:34:18.924Z,14.82
2023-04-15T04:36:48.738Z,13.23
2023-04-15T04:39:17.151Z,15.13
2023-04-15T04:41:46.456Z,13.98
2023-04-15T04:44:14.934Z,15.68
2023-04-15T04:46:43.385Z,12.68
2023-04-15T04:49:11.805Z,13.27
2023-04-15T04:51:40.314Z,16.35
2023-04-15T04:54:10.144Z,12.55
2023-04-15T04:56:39.813Z,16.75
2023-04-15T04:59:08.269Z,13.77
2023-04-15T05:01:37.281Z,15.13
2023-04-15T05:04:07.150Z,14.40
2023-04-15T05:06:36.638Z,15.30
2023-04-15T05:09:05.214Z,18.08
2023-04-15T05:11:35.089Z,15.88
2023-04-15T05:14:03.820Z,15.43
2023-04-15T05:16:32.310Z,12.20
2023-04-15T05:19:00.954Z,14.18
2023-04-15T05:21:29.564Z,13.73
2023-04-15T05:23:57.973Z,16.23
2023-04-15T05:26:27.584Z,15.35
2023-04-15T05:28:57.492Z,14.85
2023-04-15T05:31:26.123Z,14.23
2023-04-15T05:33:54.665Z,19.20
2023-04-15T05:36:23.100Z,17.00
2023-04-15T05:38:51.553Z,16.17
2023-04-15T05:41:20.095Z,15.07
2023-04-15T05:43:48.543Z,16.58
2023-04-15T05:46:18.539Z,18.33
2023-04-15T05:48:47.039Z,17.30
2023-04-15T05:51:15.948Z,16.08
2023-04-15T05:53:45.968Z,17.20
2023-04-15T05:56:14.742Z,18.80
2023-04-15T05:58:43.169Z,15.65
2023-04-15T06:01:11.782Z,17.08
2023-04-15T06:03:41.763Z,16.92
2023-04-15T06:06:10.343Z,16.80
2023-04-15T06:08:38.750Z,15.50
2023-04-15T06:11:07.410Z,15.60
2023-04-15T06:13:36.035Z,15.23
2023-04-15T06:16:04.768Z,15.07
2023-04-15T06:18:33.257Z,15.70
2023-04-15T06:21:03.093Z,14.35
2023-04-15T06:23:31.715Z,16.33
2023-04-15T06:26:00.172Z,17.20
2023-04-15T06:28:28.725Z,14.10
2023-04-15T06:30:57.291Z,15.38
2023-04-15T06:33:25.778Z,16.38
2023-04-15T06:35:54.382Z,17.27
2023-04-15T06:38:24.170Z,16.98
2023-04-15T06:40:52.648Z,16.13
2023-04-15T06:43:21.498Z,18.83
2023-04-15T06:45:50.228Z,16.83
2023-04-15T06:48:18.797Z,16.52
2023-04-15T06:50:47.234Z,14.98
2023-04-15T06:53:15.947Z,16.42
2023-04-15T06:55:45.954Z,16.52
2023-04-15T06:58:14.380Z,18.10
2023-04-15T07:00:42.883Z,18.60
2023-04-15T07:03:12.861Z,16.10
2023-04-15T07:05:41.436Z,15.50
2023-04-15T07:08:09.874Z,16.05
2023-04-15T07:10:41.571Z,14.98
2023-04-15T07:13:11.396Z,19.38
2023-04-15T07:15:39.828Z,17.08
2023-04-15T07:18:08.244Z,15.82
2023-04-15T07:20:36.733Z,18.05
2023-04-15T07:23:05.199Z,12.13
2023-04-15T07:25:33.766Z,11.30
2023-04-15T07:28:02.552Z,11.43
2023-04-15T07:30:32.413Z,11.63
2023-04-15T07:33:01.251Z,9.20
2023-04-15T07:35:29.829Z,9.70
2023-04-15T07:37:58.262Z,12.15
2023-04-15T07:40:26.749Z,12.07
2023-04-15T07:42:55.394Z,8.90
2023-04-15T07:45:23.829Z,8.98
2023-04-15T07:47:53.833Z,8.95
2023-04-15T07:50:22.903Z,12.02
2023-04-15T07:52:52.222Z,10.25
2023-04-15T07:55:22.890Z,9.60
2023-04-15T07:57:51.699Z,9.82
2023-04-15T08:00:20.189Z,10.20
2023-04-15T08:02:50.027Z,9.25
2023-04-15T08:05:20.128Z,9.60
2023-04-15T08:07:48.618Z,8.65
2023-04-15T08:10:17.286Z,8.88
2023-04-15T08:12:49.058Z,7.55
2023-04-15T08:15:18.133Z,6.20
2023-04-15T08:17:46.578Z,8.85
2023-04-15T08:20:15.090Z,5.85
2023-04-15T08:22:44.914Z,6.72
2023-04-15T08:25:13.292Z,5.45
2023-04-15T08:27:41.951Z,5.22
2023-04-15T08:30:11.144Z,5.47
2023-04-15T08:32:39.662Z,5.35
2023-04-15T08:35:08.373Z,4.95
2023-04-15T08:37:36.742Z,5.03
2023-04-15T08:40:08.555Z,5.97
2023-04-15T08:42:39.148Z,5.22
2023-04-15T08:45:11.232Z,6.40
2023-04-15T08:47:40.815Z,6.85
2023-04-15T08:50:11.837Z,4.25
2023-04-15T08:52:40.766Z,4.07
2023-04-15T08:55:11.654Z,4.90
2023-04-15T08:57:40.142Z,3.97
2023-04-15T09:00:09.443Z,4.22
2023-04-15T09:02:38.206Z,4.90
2023-04-15T09:05:07.897Z,5.32
2023-04-15T09:07:36.905Z,5.63
2023-04-15T09:10:06.650Z,4.85
2023-04-15T09:12:37.944Z,4.93
2023-04-15T09:15:07.061Z,4.15
2023-04-15T09:17:35.721Z,4.43
2023-04-15T09:20:10.887Z,4.05
2023-04-15T09:22:39.432Z,5.03
2023-04-15T09:25:27.644Z,4.28
2023-04-15T09:27:58.464Z,5.80
2023-04-15T09:30:26.935Z,5.68
2023-04-15T09:32:56.561Z,4.22
2023-04-15T09:35:25.930Z,4.60
2023-04-15T09:37:54.668Z,5.45
2023-04-15T09:40:39.217Z,5.38
2023-04-15T09:43:10.028Z,5.10
2023-04-15T09:45:38.759Z,4.93
2023-04-15T09:48:18.092Z,5.15
2023-04-15T09:50:46.702Z,4.75
2023-04-15T09:53:19.152Z,4.38
2023-04-15T09:55:48.397Z,4.13
2023-04-15T09:58:21.484Z,4.50
2023-04-15T10:00:50.650Z,5.53
2023-04-15T10:03:21.949Z,5.18
2023-04-15T10:05:51.583Z,4.70
2023-04-15T10:08:20.717Z,4.50
2023-04-15T10:10:50.116Z,5.28
2023-04-15T10:13:19.460Z,5.35
2023-04-15T10:15:53.548Z,5.45
2023-04-15T10:18:22.659Z,5.20
2023-04-15T10:20:51.252Z,5.35
2023-04-15T10:23:20.775Z,5.13
2023-04-15T10:25:49.275Z,5.65
2023-04-15T10:28:18.293Z,5.43
2023-04-15T10:30:47.997Z,5.22
2023-04-15T10:33:20.081Z,5.47
2023-04-15T10:35:49.173Z,5.95
2023-04-15T10:38:36.892Z,7.82
2023-04-15T10:41:16.684Z,8.48
2023-04-15T10:43:53.176Z,4.95
2023-04-15T10:46:23.804Z,6.13
2023-04-15T10:48:54.615Z,5.50
2023-04-15T10:51:32.895Z,6.68
2023-04-15T10:54:02.228Z,5.53
2023-04-15T10:56:31.797Z,5.38
2023-04-15T10:59:01.999Z,6.00
2023-04-15T11:01:51.491Z,5.07
2023-04-15T11:04:34.924Z,5.38
2023-04-15T11:07:08.716Z,5.22
2023-04-15T11:09:37.614Z,4.78
2023-04-15T11:12:09.760Z,5.40
2023-04-15T11:14:43.300Z,6.50
2023-04-15T11:17:11.945Z,5.20
2023-04-15T11:19:40.932Z,7.40
2023-04-15T11:22:11.594Z,4.88
2023-04-15T11:24:50.593Z,5.80
2023-04-15T11:27:25.141Z,5.70
2023-04-15T11:29:53.808Z,5.03
2023-04-15T11:32:23.669Z,5.03
2023-04-15T11:34:53.965Z,4.43
2023-04-15T11:37:31.238Z,4.65
2023-04-15T11:40:01.899Z,5.00
2023-04-15T11:42:42.734Z,4.90
2023-04-15T11:45:17.626Z,4.78
2023-04-15T11:47:47.216Z,4.53
2023-04-15T11:50:17.001Z,4.13
2023-04-15T11:52:55.574Z,4.20
2023-04-15T11:55:25.010Z,4.43
2023-04-15T11:58:08.166Z,4.63
2023-04-15T12:00:36.948Z,4.53
2023-04-15T12:03:29.461Z,5.78
2023-04-15T12:06:20.359Z,3.63
2023-04-15T12:09:00.450Z,5.68
2023-04-15T12:11:32.987Z,4.13
2023-04-15T12:14:05.106Z,3.38
2023-04-15T12:16:37.097Z,4.30
2023-04-15T12:19:07.230Z,4.25
2023-04-15T12:21:36.516Z,3.92
2023-04-15T12:24:07.524Z,4.82
2023-04-15T12:26:37.123Z,5.65
2023-04-15T12:29:06.996Z,4.30
2023-04-15T12:31:35.786Z,4.25
2023-04-15T12:34:04.985Z,4.13
2023-04-15T12:36:37.182Z,3.63
2023-04-15T12:39:06.982Z,4.95
2023-04-15T12:41:35.445Z,4.45
2023-04-15T12:44:04.138Z,4.95
2023-04-15T12:46:32.873Z,4.38
2023-04-15T12:49:01.313Z,4.97
2023-04-15T12:51:29.750Z,3.75
2023-04-15T12:53:58.233Z,5.22
2023-04-15T12:56:28.075Z,5.63
2023-04-15T12:58:56.526Z,6.40
2023-04-15T13:01:24.994Z,3.65
2023-04-15T13:03:53.635Z,4.32
2023-04-15T13:06:22.558Z,3.78
2023-04-15T13:08:58.318Z,3.33
2023-04-15T13:11:30.870Z,3.95
2023-04-15T13:13:59.623Z,4.53
2023-04-15T13:16:28.481Z,4.28
2023-04-15T13:18:56.976Z,4.55
2023-04-15T13:21:25.407Z,4.55
2023-04-15T13:23:53.949Z,6.57
2023-04-15T13:26:22.951Z,4.38
2023-04-15T13:28:52.881Z,3.85
2023-04-15T13:31:21.451Z,4.25
2023-04-15T13:33:49.917Z,3.97
2023-04-15T13:36:18.481Z,4.40
2023-04-15T13:38:48.663Z,3.72
2023-04-15T13:41:20.072Z,3.90
2023-04-15T13:43:48.528Z,4.75
2023-04-15T13:46:18.394Z,5.82
2023-04-15T13:48:46.908Z,4.80
2023-04-15T13:51:17.241Z,3.78
2023-04-15T13:53:45.667Z,3.83
2023-04-15T13:56:14.854Z,3.47
2023-04-15T13:58:43.235Z,5.95
2023-04-15T14:01:11.809Z,3.65
2023-04-15T14:03:41.793Z,4.95
2023-04-15T14:06:10.589Z,4.00
2023-04-15T14:08:39.068Z,5.97
2023-04-15T14:11:08.408Z,4.90
2023-04-15T14:13:36.911Z,4.47
2023-04-15T14:16:05.499Z,4.10
2023-04-15T14:18:34.913Z,5.47
2023-04-15T14:21:04.887Z,3.22
2023-04-15T14:23:33.275Z,4.15
2023-04-15T14:26:01.789Z,5.05
2023-04-15T14:28:30.321Z,3.88
2023-04-15T14:30:58.788Z,4.05
2023-04-15T14:33:27.254Z,4.53
2023-04-15T14:35:55.793Z,2.83
2023-04-15T14:38:28.445Z,3.58
2023-04-15T14:41:06.582Z,3.13
2023-04-15T14:43:35.332Z,3.30
2023-04-15T14:46:04.072Z,3.40
2023-04-15T14:48:32.970Z,19.08
2023-04-15T14:51:01.400Z,3.47
2023-04-15T14:53:31.549Z,3.30
2023-04-15T14:55:59.995Z,5.05
2023-04-15T14:58:28.479Z,3.22
2023-04-15T15:00:56.943Z,3.70
2023-04-15T15:03:25.423Z,3.15
2023-04-15T15:05:54.123Z,4.43
2023-04-15T15:08:22.759Z,4.70
2023-04-15T15:10:52.579Z,11.23
2023-04-15T15:13:21.207Z,4.20
2023-04-15T15:15:50.227Z,3.45
2023-04-15T15:18:19.634Z,3.03
2023-04-15T15:20:48.585Z,4.13
2023-04-15T15:23:17.246Z,3.10
2023-04-15T15:25:46.048Z,3.72
2023-04-15T15:28:15.894Z,5.32
2023-04-15T15:30:44.360Z,4.63
2023-04-15T15:33:12.966Z,4.60
2023-04-15T15:35:41.508Z,4.75
2023-04-15T15:38:09.988Z,3.15
2023-04-15T15:40:38.401Z,4.35
2023-04-15T15:43:06.845Z,3.83
2023-04-15T15:45:36.688Z,4.43
2023-04-15T15:48:05.533Z,4.88
2023-04-15T15:50:34.124Z,5.70
2023-04-15T15:53:02.605Z,3.75
2023-04-15T15:55:31.291Z,4.00
2023-04-15T15:57:59.677Z,6.28
2023-04-15T16:00:28.169Z,4.68
2023-04-15T16:05:33.014Z,3.85
2023-04-15T16:08:01.881Z,6.18
2023-04-15T16:10:30.477Z,3.60
2023-04-15T16:12:58.954Z,7.00
2023-04-15T16:15:27.705Z,5.95
2023-04-15T16:17:56.292Z,4.43
2023-04-15T16:20:26.225Z,3.92
2023-04-15T16:22:54.696Z,4.00
2023-04-15T16:25:23.131Z,4.85
2023-04-15T16:28:01.316Z,4.00
2023-04-15T16:30:31.848Z,5.07
2023-04-15T16:33:00.530Z,5.65
2023-04-15T16:35:31.309Z,8.40
2023-04-15T16:38:00.852Z,6.30
2023-04-15T16:40:29.393Z,6.43
2023-04-15T16:42:57.856Z,6.13
2023-04-15T16:45:26.511Z,7.57
2023-04-15T16:47:54.969Z,6.90
2023-04-15T16:50:23.989Z,8.55
2023-04-15T16:52:54.077Z,7.35
2023-04-15T16:55:22.602Z,6.13
2023-04-15T16:58:03.334Z,6.53
2023-04-15T17:00:32.957Z,4.22
2023-04-15T17:03:02.245Z,5.97
2023-04-15T17:05:32.063Z,5.43
2023-04-15T17:08:01.903Z,4.00
2023-04-15T17:10:30.573Z,6.68
2023-04-15T17:12:59.232Z,7.22
2023-04-15T17:15:28.339Z,7.30
2023-04-15T17:17:59.346Z,9.48
2023-04-15T17:20:27.899Z,7.50
2023-04-15T17:25:22.742Z,7.25
2023-04-15T17:27:51.255Z,7.70
2023-04-15T17:30:19.807Z,6.78
2023-04-15T17:32:48.323Z,10.68
2023-04-15T17:35:16.896Z,4.93
2023-04-15T17:37:45.531Z,6.93
2023-04-15T17:40:14.912Z,6.63
2023-04-15T17:42:44.738Z,7.80
2023-04-15T17:45:13.466Z,3.97
2023-04-15T17:47:42.154Z,6.03
2023-04-15T17:50:11.039Z,8.70
2023-04-15T17:52:39.681Z,10.75
2023-04-15T17:55:08.784Z,7.60
2023-04-15T17:57:37.410Z,7.50
2023-04-15T18:00:08.876Z,7.40
2023-04-15T18:02:37.760Z,8.50
2023-04-15T18:05:06.871Z,5.70
2023-04-15T18:07:35.377Z,9.77
2023-04-15T18:10:03.812Z,11.15
2023-04-15T18:12:32.392Z,5.85
2023-04-15T18:15:00.997Z,7.50
2023-04-15T18:17:31.024Z,7.05
2023-04-15T18:19:59.594Z,9.68
2023-04-15T18:22:28.236Z,10.32
2023-04-15T18:24:58.960Z,12.00
2023-04-15T18:27:27.477Z,7.65
2023-04-15T18:29:56.134Z,7.97
2023-04-15T18:32:24.731Z,9.93
2023-04-15T18:34:55.623Z,11.18
2023-04-15T18:37:24.472Z,8.75
2023-04-15T18:39:54.191Z,11.40
2023-04-15T18:42:22.885Z,9.38
2023-04-15T18:44:51.603Z,9.77
2023-04-15T18:47:20.283Z,13.18
2023-04-15T18:49:48.724Z,12.32
2023-04-15T18:52:18.801Z,9.70
2023-04-15T18:54:47.402Z,9.95
2023-04-15T18:57:23.539Z,9.85
2023-04-15T18:59:57.833Z,11.98
2023-04-15T19:02:26.622Z,9.85
2023-04-15T19:04:55.291Z,8.57
2023-04-15T19:07:25.203Z,11.85
2023-04-15T19:09:53.629Z,12.90
2023-04-15T19:12:22.101Z,12.52
2023-04-15T19:14:50.525Z,12.43
2023-04-15T19:17:19.070Z,8.90
2023-04-15T19:19:47.514Z,13.52
2023-04-15T19:22:15.992Z,8.75
2023-04-15T19:24:45.958Z,12.25
2023-04-15T19:27:14.471Z,7.88
2023-04-15T19:29:42.919Z,8.88
2023-04-15T19:32:11.386Z,11.35
2023-04-15T19:34:39.793Z,12.50
2023-04-15T19:37:08.459Z,13.02
2023-04-15T19:39:37.038Z,12.13
2023-04-15T19:42:07.043Z,9.40
2023-04-15T19:44:37.258Z,12.25
2023-04-15T19:47:05.845Z,9.38
2023-04-15T19:49:34.436Z,14.20
2023-04-15T19:52:02.956Z,11.52
2023-04-15T19:54:32.336Z,10.45
2023-04-15T19:57:01.611Z,9.10
2023-04-15T19:59:31.514Z,11.80
2023-04-15T20:02:00.207Z,13.23
2023-04-15T20:04:28.996Z,16.17
2023-04-15T20:06:57.774Z,13.60
2023-04-15T20:09:26.303Z,13.63
2023-04-15T20:12:46.928Z,7.90
2023-04-15T20:14:44.700Z,11.57
2023-04-15T20:17:13.240Z,7.65
2023-04-15T20:19:41.661Z,10.40
2023-04-15T20:22:10.109Z,16.30
2023-04-15T20:24:38.570Z,15.50
2023-04-15T20:27:07.095Z,15.88
2023-04-15T20:29:36.299Z,16.60
2023-04-15T20:32:06.833Z,17.85
2023-04-15T20:34:35.666Z,16.15
2023-04-15T20:37:04.149Z,16.00
2023-04-15T20:39:32.757Z,19.40
2023-04-15T20:42:01.409Z,18.75
2023-04-15T20:44:31.435Z,20.88
2023-04-15T20:47:00.250Z,19.27
2023-04-15T20:49:30.350Z,14.45
2023-04-15T20:51:58.913Z,14.77
2023-04-15T20:54:27.546Z,12.48
2023-04-15T20:56:56.418Z,20.17
2023-04-15T20:59:25.066Z,17.88
2023-04-15T21:01:53.890Z,18.52
2023-04-15T21:04:22.544Z,19.85
2023-04-15T21:06:52.593Z,20.02
2023-04-15T21:09:21.373Z,19.10
2023-04-15T21:14:21.927Z,26.88
2023-04-15T21:16:50.466Z,30.27
2023-04-15T21:19:19.016Z,29.77
2023-04-15T21:21:47.458Z,30.63
2023-04-15T21:24:17.344Z,23.63
2023-04-15T21:26:46.001Z,29.08
2023-04-15T21:29:14.800Z,30.17
2023-04-15T21:31:43.600Z,40.05
2023-04-15T21:34:12.597Z,39.38
2023-04-15T21:36:41.124Z,41.10
2023-04-15T21:39:09.661Z,34.53
2023-04-15T21:41:39.672Z,31.35
2023-04-15T21:44:08.239Z,30.40
2023-04-15T21:46:36.760Z,27.85
2023-04-15T21:49:07.086Z,28.88
2023-04-15T21:51:35.795Z,23.08
2023-04-15T21:54:04.469Z,21.88
2023-04-15T21:56:32.930Z,20.92
2023-04-15T21:59:03.163Z,23.83
2023-04-15T22:01:31.818Z,24.73
2023-04-15T22:04:00.532Z,25.25
2023-04-15T22:06:29.159Z,22.80
2023-04-15T22:08:58.053Z,23.67
2023-04-15T22:11:28.404Z,22.10
2023-04-15T22:13:57.802Z,25.25
2023-04-15T22:16:28.440Z,24.80
2023-04-15T22:18:57.215Z,20.58
2023-04-15T22:21:26.653Z,20.70
2023-04-15T22:24:32.880Z,24.05
2023-04-15T22:26:43.678Z,23.70
2023-04-15T22:29:12.116Z,20.23
2023-04-15T22:31:41.971Z,23.17
2023-04-15T22:34:10.582Z,20.98
2023-04-15T22:36:38.938Z,18.38
2023-04-15T22:39:07.676Z,19.85
2023-04-15T22:41:36.237Z,23.17
2023-04-15T22:44:04.688Z,27.33
2023-04-15T22:46:33.189Z,30.85
2023-04-15T22:49:03.207Z,23.35
2023-04-15T22:51:32.834Z,29.65
2023-04-15T22:54:01.546Z,27.23
2023-04-15T22:56:30.158Z,29.08
2023-04-15T22:58:58.845Z,32.40
2023-04-15T23:01:27.822Z,29.48
2023-04-15T23:04:05.162Z,34.03
2023-04-15T23:06:39.584Z,36.42
2023-04-15T23:09:08.280Z,35.08
2023-04-15T23:11:36.809Z,37.10
2023-04-15T23:14:05.485Z,30.08
2023-04-15T23:16:34.051Z,27.25
2023-04-15T23:19:02.518Z,31.60
2023-04-15T23:21:31.449Z,28.83
2023-04-15T23:24:01.316Z,25.00
2023-04-15T23:26:29.718Z,29.88
2023-04-15T23:28:58.130Z,28.17
2023-04-15T23:31:26.513Z,28.58
2023-04-15T23:33:54.968Z,34.55
2023-04-15T23:36:23.428Z,30.42
2023-04-15T23:38:51.898Z,33.45
2023-04-15T23:41:21.729Z,34.75
2023-04-15T23:43:50.299Z,33.28
2023-04-15T23:46:18.734Z,30.08
2023-04-15T23:48:47.874Z,41.65
2023-04-15T23:51:16.514Z,43.85
2023-04-15T23:53:44.985Z,35.80
2023-04-15T23:56:13.835Z,31.40
2023-04-15T23:58:43.664Z,30.38
